Albany, Iowa
Current Conditions -  °F | °C
As of 10:15 AM on Saturday 20 Dec 2014 (Local Time) from KOLZ Reporting Station
Haze Haze  
Wind Chill: 22°   Ceiling: 400
Heat Index: 30°   Visibility: 2mi
Dew Point: 28°   Wind: 9mph
Humidity: 93%   Direction: 160°SSE
Pressure: 30.2"   Gusts: NA
Location:  42.8663°N, 91.8396°W
Report Text: KOLZ 201615Z AUTO 16008KT 2SM BR OVC004 M01/M02 A3020 RMK AO2
Loading
Personal Weather Stations






























Interactive Weather Map New forecast layout! Learn more

10-Day Weather Forecast

Advertisements
Track Severe Weather on mobile